Time;durP1;ratioP1;P1;durP2;ratioP2;P2;SDS_P1;SDS_P2;PMS_P1;PMS_P2;Temp;Humidity;BMP_temperature;BMP_pressure;BME280_temperature;BME280_humidity;BME280_pressure;Samples;Min_cycle;Max_cycle;Signal;HPM_P1;HPM_P2
2022/11/03 00:01:00;;;;;;;1.75;0.30;;;22.60;48.10;;;;;;5090424;28;20032;-62
2022/11/03 00:03:27;;;;;;;5.15;0.52;;;22.60;48.20;;;;;;5090401;28;20040;-62
2022/11/03 00:06:06;;;;;;;5.72;1.73;;;22.70;48.40;;;;;;5090408;28;20032;-61
2022/11/03 00:08:37;;;;;;;1.30;0.20;;;22.70;48.30;;;;;;5090268;28;20571;-61
2022/11/03 00:11:06;;;;;;;2.97;0.30;;;22.70;48.30;;;;;;5057441;28;20107;-62
2022/11/03 00:13:34;;;;;;;4.40;0.20;;;22.70;48.40;;;;;;5049541;28;20866;-62
2022/11/03 00:16:01;;;;;;;2.45;0.10;;;22.70;48.40;;;;;;5065474;28;20135;-62
2022/11/03 00:18:28;;;;;;;2.80;0.22;;;22.70;48.30;;;;;;5089423;28;20048;-60
2022/11/03 00:20:59;;;;;;;2.15;0.68;;;22.80;48.60;;;;;;5074852;28;20144;-61
2022/11/03 00:23:28;;;;;;;4.72;0.30;;;22.80;48.60;;;;;;5069731;28;20504;-62
2022/11/03 00:26:03;;;;;;;3.30;0.30;;;22.80;48.50;;;;;;5068271;28;20147;-61
2022/11/03 00:28:31;;;;;;;3.17;0.20;;;22.80;48.60;;;;;;5069589;28;20605;-60
2022/11/03 00:30:58;;;;;;;4.57;1.05;;;22.80;48.60;;;;;;5069645;28;20044;-61
2022/11/03 00:33:26;;;;;;;2.60;0.40;;;22.80;48.60;;;;;;5069634;28;20131;-60
2022/11/03 00:35:57;;;;;;;2.25;0.10;;;22.80;48.70;;;;;;5069338;28;20045;-61
2022/11/03 00:38:24;;;;;;;6.38;0.30;;;22.80;48.90;;;;;;5069382;28;20536;-60
2022/11/03 00:40:54;;;;;;;2.10;0.15;;;22.80;48.80;;;;;;5062213;28;20068;-60
2022/11/03 00:43:22;;;;;;;2.05;0.50;;;22.90;48.90;;;;;;5055529;28;20045;-59
2022/11/03 00:45:50;;;;;;;1.27;0.20;;;22.90;49.00;;;;;;5049438;28;20663;-59
2022/11/03 00:51:07;;;;;;;7.53;0.47;;;22.90;48.90;;;;;;5063844;28;20044;-60
2022/11/03 00:53:36;;;;;;;1.38;0.15;;;22.90;49.00;;;;;;5062370;28;20051;-60
2022/11/03 00:56:06;;;;;;;2.25;1.05;;;22.90;48.90;;;;;;5054716;28;20052;-60
2022/11/03 00:58:35;;;;;;;2.83;0.40;;;22.90;49.00;;;;;;5048892;28;20506;-60
2022/11/03 01:01:04;;;;;;;3.92;0.65;;;22.90;49.00;;;;;;5049265;28;20044;-60
2022/11/03 01:03:32;;;;;;;3.60;0.43;;;22.90;49.00;;;;;;5048917;28;20408;-59
2022/11/03 01:08:44;;;;;;;1.08;0.30;;;22.90;49.10;;;;;;5068814;28;20088;-61
2022/11/03 01:13:58;;;;;;;3.10;1.70;;;23.00;49.20;;;;;;5067376;28;20044;-61
2022/11/03 01:16:26;;;;;;;3.70;0.20;;;22.90;49.30;;;;;;5068924;28;20797;-61
2022/11/03 01:18:54;;;;;;;1.45;0.25;;;22.90;49.30;;;;;;5068776;28;20098;-61
2022/11/03 01:21:21;;;;;;;1.13;0.43;;;23.00;49.40;;;;;;5067286;28;20041;-59
2022/11/03 01:23:48;;;;;;;2.67;0.20;;;23.00;49.40;;;;;;5068525;28;20570;-58
2022/11/03 01:26:16;;;;;;;1.27;0.40;;;23.00;49.90;;;;;;5068565;28;20040;-62
2022/11/03 01:28:45;;;;;;;1.65;0.20;;;23.00;49.30;;;;;;5068425;28;20094;-61
2022/11/03 01:31:15;;;;;;;5.93;0.20;;;23.00;49.30;;;;;;5067992;28;20044;-60
2022/11/03 01:33:44;;;;;;;3.30;0.50;;;23.00;49.40;;;;;;5068514;28;20082;-61
2022/11/03 01:36:12;;;;;;;2.20;0.13;;;23.00;49.30;;;;;;5068483;28;20086;-60
2022/11/03 01:38:39;;;;;;;3.50;0.40;;;23.00;49.40;;;;;;5067870;28;20052;-60
2022/11/03 01:41:08;;;;;;;1.58;0.22;;;23.00;49.30;;;;;;5068559;28;20048;-60
2022/11/03 01:43:38;;;;;;;2.72;0.28;;;23.00;49.30;;;;;;5068120;28;20505;-60
2022/11/03 01:46:13;;;;;;;3.63;0.50;;;23.00;49.50;;;;;;5068242;28;20036;-60
2022/11/03 01:48:48;;;;;;;1.23;0.20;;;23.00;49.40;;;;;;5058679;28;20045;-60
2022/11/03 01:51:19;;;;;;;4.97;1.30;;;23.00;49.30;;;;;;5066469;28;20657;-60
2022/11/03 01:53:51;;;;;;;1.60;0.20;;;23.00;49.40;;;;;;5067965;28;20394;-60
2022/11/03 01:56:20;;;;;;;4.75;0.30;;;23.00;49.30;;;;;;5068232;28;20081;-60
2022/11/03 01:58:50;;;;;;;3.97;0.22;;;23.00;49.20;;;;;;5068229;28;20052;-60
2022/11/03 02:01:18;;;;;;;3.20;0.15;;;23.10;49.20;;;;;;5068045;28;20072;-59
2022/11/03 02:03:51;;;;;;;3.35;0.30;;;23.10;49.30;;;;;;5068999;28;20051;-60
2022/11/03 02:06:20;;;;;;;4.85;0.55;;;23.10;49.20;;;;;;5047910;28;20041;-61
2022/11/03 02:08:50;;;;;;;4.65;0.43;;;23.10;49.30;;;;;;5047545;28;20049;-61
2022/11/03 02:14:02;;;;;;;7.63;0.28;;;23.10;49.40;;;;;;5047989;28;20083;-62
2022/11/03 02:16:32;;;;;;;2.65;0.22;;;23.10;49.30;;;;;;5047656;28;20045;-60
2022/11/03 02:19:03;;;;;;;0.70;0.15;;;23.10;49.30;;;;;;5048166;28;20103;-60
2022/11/03 02:21:35;;;;;;;1.30;0.45;;;23.10;49.30;;;;;;5067375;28;20125;-63
2022/11/03 02:24:11;;;;;;;1.77;0.60;;;23.10;49.30;;;;;;5067428;28;20041;-61
2022/11/03 02:26:40;;;;;;;5.15;0.90;;;23.10;49.20;;;;;;5068264;28;20584;-60
2022/11/03 02:29:07;;;;;;;2.78;0.28;;;23.10;49.30;;;;;;5068645;28;20476;-61
2022/11/03 02:31:41;;;;;;;6.18;0.20;;;23.10;49.40;;;;;;5067975;28;20036;-59
2022/11/03 02:34:16;;;;;;;2.47;0.25;;;23.10;49.30;;;;;;5068001;28;20051;-60
2022/11/03 02:36:47;;;;;;;16.58;0.20;;;23.10;49.20;;;;;;5054729;28;20045;-60
2022/11/03 02:39:19;;;;;;;1.98;0.60;;;23.10;49.30;;;;;;5047755;28;20049;-59
2022/11/03 02:41:49;;;;;;;2.88;0.45;;;23.10;49.20;;;;;;5065672;28;20041;-60
2022/11/03 02:44:19;;;;;;;3.70;0.38;;;23.10;49.10;;;;;;5072155;28;20524;-60
2022/11/03 02:46:49;;;;;;;2.40;0.75;;;23.10;49.20;;;;;;5071510;28;20141;-60
2022/11/03 02:49:16;;;;;;;2.35;0.20;;;23.10;49.20;;;;;;5071376;28;20044;-59
2022/11/03 02:51:43;;;;;;;2.22;0.38;;;23.10;49.20;;;;;;5057438;28;20127;-60
2022/11/03 02:54:16;;;;;;;1.15;0.20;;;23.10;49.10;;;;;;5051384;28;20041;-60
2022/11/03 02:56:50;;;;;;;2.30;0.30;;;23.10;49.00;;;;;;5051337;28;20045;-59
2022/11/03 02:59:20;;;;;;;3.92;0.50;;;23.10;49.10;;;;;;5051396;28;20186;-60
2022/11/03 03:01:52;;;;;;;8.48;0.30;;;23.00;49.00;;;;;;5051067;28;20148;-60
2022/11/03 03:04:25;;;;;;;1.58;0.20;;;23.00;48.90;;;;;;5051277;28;20079;-60
2022/11/03 03:06:57;;;;;;;5.00;0.57;;;23.00;49.00;;;;;;5050942;28;20045;-60
2022/11/03 03:09:27;;;;;;;4.30;0.30;;;23.00;48.90;;;;;;5051144;28;20513;-60
2022/11/03 03:11:58;;;;;;;2.20;1.75;;;23.00;48.90;;;;;;5051108;28;20456;-60
2022/11/03 03:14:29;;;;;;;2.53;0.40;;;23.00;48.90;;;;;;5051199;28;20041;-60
2022/11/03 03:17:00;;;;;;;4.25;0.40;;;23.00;48.90;;;;;;5051002;28;20580;-59
2022/11/03 03:19:37;;;;;;;5.75;0.52;;;23.00;48.80;;;;;;5053669;28;20139;-60
2022/11/03 03:22:11;;;;;;;1.13;0.20;;;23.00;48.70;;;;;;5069393;28;20048;-60
2022/11/03 03:24:43;;;;;;;4.13;0.30;;;23.00;49.30;;;;;;5070543;28;20055;-59
2022/11/03 03:27:14;;;;;;;0.77;0.22;;;23.00;48.70;;;;;;5070795;28;20127;-60
2022/11/03 03:29:46;;;;;;;4.53;0.77;;;23.00;48.70;;;;;;5070859;28;20042;-60
2022/11/03 03:32:17;;;;;;;1.70;0.50;;;23.00;48.60;;;;;;5070626;28;20047;-60
2022/11/03 03:34:47;;;;;;;0.47;0.20;;;23.00;48.70;;;;;;5070608;28;20041;-60
2022/11/03 03:37:16;;;;;;;0.60;0.17;;;23.00;48.70;;;;;;5070583;28;20098;-60
2022/11/03 03:39:46;;;;;;;1.25;0.20;;;23.00;48.60;;;;;;5070384;28;20041;-60
2022/11/03 03:42:16;;;;;;;3.67;0.30;;;23.00;48.70;;;;;;5070613;28;20051;-60
2022/11/03 03:44:45;;;;;;;1.63;0.35;;;23.00;48.60;;;;;;5070411;28;20181;-60
2022/11/03 03:47:16;;;;;;;1.45;0.20;;;23.00;48.50;;;;;;5070300;28;20131;-60
2022/11/03 03:49:44;;;;;;;3.60;0.38;;;23.00;48.40;;;;;;5070063;28;20064;-61
2022/11/03 03:52:11;;;;;;;2.97;0.20;;;23.00;48.40;;;;;;5069640;28;20054;-60
2022/11/03 03:54:38;;;;;;;1.10;0.10;;;23.00;48.40;;;;;;5069821;28;20083;-60
2022/11/03 03:57:10;;;;;;;2.63;0.20;;;23.00;48.40;;;;;;5070315;28;20044;-60
2022/11/03 03:59:38;;;;;;;2.15;0.50;;;23.00;48.40;;;;;;5070338;28;20060;-60
2022/11/03 04:02:06;;;;;;;0.90;0.20;;;23.00;48.30;;;;;;5068686;28;20043;-60
2022/11/03 04:04:33;;;;;;;3.92;0.20;;;22.90;48.40;;;;;;5070064;28;20040;-60
2022/11/03 04:09:44;;;;;;;3.45;0.10;;;22.90;48.30;;;;;;5071049;28;20040;-60
2022/11/03 04:23:17;;;;;;;5.22;0.30;;;22.90;48.30;;;;;;5007369;28;20077;-60
2022/11/03 04:25:48;;;;;;;2.25;0.70;;;22.90;48.30;;;;;;5007285;28;20063;-59
2022/11/03 04:28:15;;;;;;;1.48;0.38;;;22.90;48.30;;;;;;5007227;28;20050;-59
2022/11/03 04:30:44;;;;;;;0.47;0.20;;;22.90;48.30;;;;;;5007104;28;20048;-60
2022/11/03 04:33:14;;;;;;;1.05;0.10;;;22.90;48.20;;;;;;5006964;28;20050;-59
2022/11/03 04:35:43;;;;;;;2.28;0.20;;;22.90;48.30;;;;;;5007265;28;20050;-60
2022/11/03 04:38:21;;;;;;;4.53;0.28;;;22.90;48.30;;;;;;5007389;28;20050;-60
2022/11/03 04:40:50;;;;;;;1.42;0.77;;;22.90;48.20;;;;;;5007100;28;20060;-60
2022/11/03 04:43:18;;;;;;;2.90;0.45;;;22.90;48.30;;;;;;5007211;28;20054;-60
2022/11/03 04:45:48;;;;;;;0.57;0.15;;;22.80;48.10;;;;;;5006667;28;20050;-60
2022/11/03 04:48:16;;;;;;;2.95;0.95;;;22.90;48.30;;;;;;5000056;28;20726;-60
2022/11/03 04:50:46;;;;;;;2.38;0.10;;;22.80;48.20;;;;;;5007675;28;20073;-60
2022/11/03 04:53:16;;;;;;;2.22;0.63;;;22.90;48.20;;;;;;5065217;28;20032;-60
2022/11/03 04:55:45;;;;;;;4.75;0.10;;;22.80;48.10;;;;;;5068031;28;20056;-60
2022/11/03 04:58:19;;;;;;;3.05;0.40;;;22.80;48.10;;;;;;5067401;28;20068;-59
2022/11/03 05:00:49;;;;;;;1.25;0.20;;;22.80;48.00;;;;;;5068146;28;20123;-60
2022/11/03 05:03:22;;;;;;;3.20;0.52;;;22.80;48.10;;;;;;5063083;28;20036;-61
2022/11/03 05:05:49;;;;;;;1.90;0.32;;;22.90;48.10;;;;;;5067837;28;20102;-59
2022/11/03 05:08:18;;;;;;;2.50;0.10;;;22.80;48.00;;;;;;5068176;28;20036;-60
2022/11/03 05:10:45;;;;;;;1.63;0.17;;;22.80;48.00;;;;;;5067472;28;20105;-60
2022/11/03 05:13:18;;;;;;;2.10;0.30;;;22.80;47.90;;;;;;5068954;28;20497;-60
2022/11/03 05:15:49;;;;;;;2.42;0.10;;;22.80;47.80;;;;;;5071689;28;20141;-61
2022/11/03 05:18:20;;;;;;;1.52;0.25;;;22.80;47.80;;;;;;5052431;28;20163;-60
2022/11/03 05:20:51;;;;;;;2.05;0.40;;;22.80;47.90;;;;;;5068524;28;20136;-60
2022/11/03 05:23:20;;;;;;;2.25;0.40;;;22.80;47.80;;;;;;5068012;28;20064;-60
2022/11/03 05:25:50;;;;;;;1.65;0.20;;;22.80;47.90;;;;;;5065994;28;20080;-58
2022/11/03 05:28:23;;;;;;;1.55;0.20;;;22.80;48.00;;;;;;5064527;28;20059;-61
2022/11/03 05:30:52;;;;;;;5.35;0.15;;;22.80;48.20;;;;;;5065785;28;20527;-61
2022/11/03 05:33:25;;;;;;;1.80;0.10;;;22.80;48.20;;;;;;5069622;28;20044;-61
2022/11/03 05:35:52;;;;;;;1.63;0.15;;;22.80;48.50;;;;;;5067434;28;20102;-60
2022/11/03 05:38:22;;;;;;;8.25;0.17;;;22.80;48.50;;;;;;5068146;28;20139;-60
2022/11/03 05:40:51;;;;;;;2.20;0.20;;;22.80;48.50;;;;;;5065005;28;20044;-61
2022/11/03 05:43:19;;;;;;;6.82;0.85;;;22.80;48.60;;;;;;5067345;28;20040;-60
2022/11/03 05:45:48;;;;;;;5.20;0.10;;;22.80;48.50;;;;;;5067030;28;20509;-61
2022/11/03 05:48:27;;;;;;;7.57;0.10;;;22.80;48.50;;;;;;5069128;28;20048;-61
2022/11/03 05:50:58;;;;;;;3.40;0.20;;;22.80;48.40;;;;;;5070890;28;20072;-62
2022/11/03 05:53:29;;;;;;;1.52;0.35;;;22.80;48.30;;;;;;5065489;28;20044;-60
2022/11/03 05:56:00;;;;;;;2.75;0.57;;;22.80;48.20;;;;;;5068256;28;20044;-61
2022/11/03 05:58:30;;;;;;;5.10;0.20;;;22.70;48.20;;;;;;5068578;28;20064;-62
2022/11/03 06:01:00;;;;;;;2.38;0.30;;;22.70;48.20;;;;;;5066508;28;20036;-62
2022/11/03 06:03:30;;;;;;;4.68;0.10;;;22.80;48.40;;;;;;5067557;28;20036;-61
2022/11/03 06:05:59;;;;;;;3.42;0.63;;;22.70;48.30;;;;;;5064652;28;20823;-61
2022/11/03 06:08:32;;;;;;;3.00;0.20;;;22.70;48.30;;;;;;5065127;28;20039;-60
2022/11/03 06:11:01;;;;;;;1.75;0.13;;;22.70;48.30;;;;;;5067475;28;20535;-60
2022/11/03 06:13:32;;;;;;;2.47;0.43;;;22.70;48.40;;;;;;5065389;28;20040;-60
2022/11/03 06:16:02;;;;;;;2.28;0.30;;;22.70;48.20;;;;;;5067157;28;20153;-60
2022/11/03 06:18:35;;;;;;;0.40;0.17;;;22.70;48.20;;;;;;5063119;28;20125;-60
2022/11/03 06:21:07;;;;;;;2.60;0.20;;;22.70;48.30;;;;;;5069754;28;20043;-60
2022/11/03 06:23:36;;;;;;;3.83;0.10;;;22.70;48.50;;;;;;5066999;28;20120;-61
2022/11/03 06:26:05;;;;;;;2.85;0.28;;;22.70;48.70;;;;;;5066976;28;20733;-61
2022/11/03 06:28:38;;;;;;;5.07;0.47;;;22.70;48.70;;;;;;5066446;28;20052;-61
2022/11/03 06:31:12;;;;;;;2.70;0.50;;;22.70;48.80;;;;;;5067592;28;20045;-59
2022/11/03 06:33:41;;;;;;;2.67;0.20;;;22.70;48.90;;;;;;5067010;28;20064;-59
2022/11/03 06:36:16;;;;;;;3.03;0.10;;;22.70;49.10;;;;;;5076100;28;20044;-59
2022/11/03 06:38:46;;;;;;;3.55;0.90;;;22.70;49.10;;;;;;5080891;28;20627;-59
2022/11/03 06:41:20;;;;;;;4.75;0.55;;;22.70;49.00;;;;;;5047190;28;20067;-60
2022/11/03 06:43:47;;;;;;;3.72;0.38;;;22.70;49.20;;;;;;5064955;28;20509;-59
2022/11/03 06:46:19;;;;;;;2.80;0.30;;;22.70;49.10;;;;;;5067456;28;20037;-59
2022/11/03 06:48:48;;;;;;;1.40;0.20;;;22.70;49.00;;;;;;5065955;28;20132;-60
2022/11/03 06:51:18;;;;;;;2.05;0.52;;;22.70;49.00;;;;;;5067237;28;20041;-58
2022/11/03 06:53:46;;;;;;;2.25;0.20;;;22.60;49.00;;;;;;5067516;28;20060;-58
2022/11/03 06:56:15;;;;;;;2.08;1.23;;;22.60;48.90;;;;;;5067465;28;20057;-59
2022/11/03 06:58:43;;;;;;;5.07;0.20;;;22.70;48.90;;;;;;5067179;28;20056;-58
2022/11/03 07:01:15;;;;;;;4.90;0.20;;;22.60;48.80;;;;;;5067289;28;20075;-59
2022/11/03 07:03:42;;;;;;;2.58;1.20;;;22.60;48.80;;;;;;5067402;28;20048;-59
2022/11/03 07:06:20;;;;;;;5.28;0.28;;;22.60;48.80;;;;;;5067304;28;20055;-59
2022/11/03 07:08:49;;;;;;;6.53;0.20;;;22.60;48.70;;;;;;5067405;28;20194;-60
2022/11/03 07:11:19;;;;;;;1.30;0.10;;;22.60;48.70;;;;;;5067351;28;20063;-59
2022/11/03 07:13:48;;;;;;;5.07;0.20;;;22.60;48.70;;;;;;5065809;28;20110;-61
2022/11/03 07:16:19;;;;;;;0.90;0.20;;;22.60;48.70;;;;;;5067166;28;20036;-59
2022/11/03 07:18:47;;;;;;;2.90;0.10;;;22.50;48.50;;;;;;5067284;28;20080;-59
2022/11/03 07:21:31;;;;;;;2.20;0.10;;;22.60;48.70;;;;;;5067302;28;20055;-59
2022/11/03 07:24:01;;;;;;;0.47;0.20;;;22.50;48.50;;;;;;5065758;28;20041;-60
2022/11/03 07:26:28;;;;;;;2.72;0.30;;;22.50;48.50;;;;;;5066982;28;20037;-59
2022/11/03 07:28:55;;;;;;;2.35;0.13;;;22.50;48.50;;;;;;5056508;28;20646;-59
2022/11/03 07:31:25;;;;;;;4.57;0.47;;;22.50;48.50;;;;;;5055187;28;20043;-70
2022/11/03 07:33:56;;;;;;;1.90;0.40;;;22.50;48.60;;;;;;5055286;28;20045;-71
2022/11/03 07:36:31;;;;;;;2.35;0.17;;;22.50;49.20;;;;;;5067238;28;20072;-71
2022/11/03 07:39:01;;;;;;;2.28;0.28;;;22.50;50.20;;;;;;5070267;28;20059;-64
2022/11/03 07:41:31;;;;;;;3.95;0.30;;;22.50;50.20;;;;;;5068888;28;20033;-61
2022/11/03 07:44:00;;;;;;;5.57;0.60;;;22.60;50.40;;;;;;5079054;28;20044;-62
2022/11/03 07:46:27;;;;;;;1.60;0.88;;;22.60;50.50;;;;;;5072750;28;20115;-62
2022/11/03 07:48:56;;;;;;;6.63;0.82;;;22.60;50.50;;;;;;5067766;28;20052;-57
2022/11/03 07:51:28;;;;;;;2.63;0.45;;;22.60;50.90;;;;;;5068522;28;20063;-55
2022/11/03 07:53:58;;;;;;;6.90;0.80;;;22.60;51.10;;;;;;5065261;28;20151;-57
2022/11/03 07:56:27;;;;;;;6.10;0.88;;;22.70;51.20;;;;;;5068710;28;20048;-56
2022/11/03 07:58:58;;;;;;;5.97;1.02;;;22.70;51.40;;;;;;5069130;28;20040;-56
2022/11/03 08:01:28;;;;;;;3.03;0.40;;;22.70;51.50;;;;;;5067742;28;20150;-54
2022/11/03 08:03:59;;;;;;;8.23;1.77;;;22.70;51.50;;;;;;5070442;28;20420;-55
2022/11/03 08:06:28;;;;;;;7.35;1.20;;;22.70;52.90;;;;;;5070118;28;20574;-51
2022/11/03 08:08:55;;;;;;;9.52;0.63;;;22.70;53.40;;;;;;5069525;28;20055;-54
2022/11/03 08:11:22;;;;;;;10.13;1.45;;;22.70;53.90;;;;;;5059285;28;20053;-57
2022/11/03 08:13:50;;;;;;;6.03;0.40;;;22.80;53.90;;;;;;5050245;28;20120;-60
2022/11/03 08:16:17;;;;;;;6.78;0.68;;;22.80;53.70;;;;;;5049941;28;20052;-56
2022/11/03 08:18:44;;;;;;;8.30;2.47;;;22.80;53.50;;;;;;5049781;28;20047;-55
2022/11/03 08:21:12;;;;;;;6.20;0.52;;;22.80;53.50;;;;;;5067145;28;20040;-57
2022/11/03 08:23:41;;;;;;;3.55;0.85;;;22.90;53.30;;;;;;5069822;28;20044;-57
2022/11/03 08:26:08;;;;;;;6.32;0.70;;;22.90;53.10;;;;;;5069443;28;20386;-55
2022/11/03 08:28:35;;;;;;;3.67;0.85;;;22.90;53.00;;;;;;5069736;28;20040;-54
2022/11/03 08:31:04;;;;;;;4.32;0.30;;;22.90;52.90;;;;;;5069755;28;20578;-56
2022/11/03 08:33:32;;;;;;;2.33;0.50;;;22.90;52.80;;;;;;5069644;28;20049;-54
2022/11/03 08:35:59;;;;;;;11.90;0.43;;;22.90;52.60;;;;;;5069940;28;20056;-55
2022/11/03 08:38:26;;;;;;;5.85;0.40;;;22.90;52.40;;;;;;5069251;28;20049;-55
2022/11/03 08:40:57;;;;;;;3.58;0.40;;;22.90;52.40;;;;;;5069341;28;20048;-54
2022/11/03 08:43:24;;;;;;;5.97;0.40;;;22.90;52.20;;;;;;5069367;28;20127;-56
2022/11/03 08:45:52;;;;;;;7.85;0.95;;;22.90;52.10;;;;;;5067931;28;20050;-51
2022/11/03 08:48:20;;;;;;;4.93;1.10;;;22.90;51.80;;;;;;5069437;28;20048;-53
2022/11/03 08:50:47;;;;;;;4.18;0.60;;;22.90;51.70;;;;;;5067755;28;20064;-55
2022/11/03 08:53:14;;;;;;;4.13;0.20;;;22.80;51.60;;;;;;5069274;28;20047;-52
2022/11/03 08:55:41;;;;;;;1.83;0.43;;;22.80;51.40;;;;;;5068702;28;20453;-54
2022/11/03 08:58:10;;;;;;;4.22;0.77;;;22.80;51.20;;;;;;5069266;28;20556;-56
2022/11/03 09:00:37;;;;;;;4.75;0.57;;;22.90;51.10;;;;;;5069101;28;20043;-53
2022/11/03 09:03:04;;;;;;;1.85;0.10;;;22.80;50.80;;;;;;5069208;28;20064;-55
2022/11/03 09:05:31;;;;;;;0.60;0.28;;;22.80;50.50;;;;;;5061642;28;20535;-55
2022/11/03 09:07:58;;;;;;;2.28;1.02;;;22.80;50.40;;;;;;5048700;28;20136;-55
2022/11/03 09:10:29;;;;;;;1.38;0.13;;;22.80;50.30;;;;;;5048782;28;20049;-54
2022/11/03 09:12:59;;;;;;;3.30;1.08;;;22.80;50.10;;;;;;5049184;28;20052;-56
2022/11/03 09:15:28;;;;;;;1.90;0.10;;;22.80;50.00;;;;;;5047514;28;20053;-56
2022/11/03 09:17:55;;;;;;;4.93;0.45;;;22.80;50.00;;;;;;5048807;28;20114;-55
2022/11/03 09:20:22;;;;;;;1.75;0.10;;;22.70;49.90;;;;;;5059108;28;20055;-55
2022/11/03 09:22:49;;;;;;;3.13;0.10;;;22.70;49.90;;;;;;5068363;28;20044;-54
2022/11/03 09:25:16;;;;;;;5.53;0.28;;;22.70;49.80;;;;;;5068221;28;20119;-54
2022/11/03 09:27:43;;;;;;;2.30;0.20;;;22.70;49.80;;;;;;5068746;28;20120;-52
2022/11/03 09:30:12;;;;;;;3.85;0.40;;;22.70;49.80;;;;;;5068575;28;20675;-54
2022/11/03 09:32:40;;;;;;;0.70;0.10;;;22.70;49.70;;;;;;5068481;28;20038;-56
2022/11/03 09:35:08;;;;;;;5.45;0.43;;;22.70;49.90;;;;;;5068568;28;20598;-54
2022/11/03 09:37:36;;;;;;;2.47;0.20;;;22.70;49.60;;;;;;5068130;28;20048;-55
2022/11/03 09:40:04;;;;;;;1.42;0.10;;;22.60;49.60;;;;;;5068265;28;20055;-56
2022/11/03 09:42:33;;;;;;;2.78;0.10;;;22.60;49.70;;;;;;5068366;28;20412;-56
2022/11/03 09:45:10;;;;;;;1.48;0.10;;;22.60;49.50;;;;;;5068175;28;20052;-55
2022/11/03 09:47:42;;;;;;;0.95;0.10;;;22.60;49.50;;;;;;5068200;28;20065;-55
2022/11/03 09:50:14;;;;;;;0.88;0.20;;;22.60;49.60;;;;;;5067329;28;20139;-56
2022/11/03 09:52:44;;;;;;;3.55;0.17;;;22.60;49.60;;;;;;5067670;28;20086;-54
2022/11/03 09:55:15;;;;;;;1.95;0.20;;;22.60;49.40;;;;;;5067649;28;20127;-56
2022/11/03 09:57:43;;;;;;;0.38;0.10;;;22.60;49.30;;;;;;5068368;28;20064;-55
2022/11/03 10:00:18;;;;;;;0.25;0.10;;;22.60;49.40;;;;;;5068286;28;20054;-52
2022/11/03 10:02:47;;;;;;;1.80;0.57;;;22.60;49.20;;;;;;5068271;28;20146;-56
2022/11/03 10:05:18;;;;;;;5.25;0.75;;;22.60;49.20;;;;;;5068066;28;20048;-52
2022/11/03 10:07:45;;;;;;;0.88;0.10;;;22.60;49.20;;;;;;5067863;28;20055;-56
2022/11/03 10:10:18;;;;;;;0.85;0.20;;;22.60;49.20;;;;;;5067871;28;20083;-55
2022/11/03 10:12:46;;;;;;;0.40;0.30;;;22.60;49.20;;;;;;5068293;28;20048;-54
2022/11/03 10:15:15;;;;;;;4.15;0.50;;;22.60;49.10;;;;;;5068211;28;20045;-55
2022/11/03 10:17:43;;;;;;;4.28;0.10;;;22.60;49.00;;;;;;5068078;28;20068;-56
2022/11/03 10:20:13;;;;;;;0.47;0.10;;;22.60;49.00;;;;;;5069043;28;20029;-55
2022/11/03 10:22:41;;;;;;;3.75;0.75;;;22.60;48.90;;;;;;5047633;28;20129;-55
2022/11/03 10:25:29;;;;;;;0.30;0.30;;;22.60;48.80;;;;;;5047840;28;20043;-56
2022/11/03 10:28:15;;;;;;;2.70;0.40;;;22.60;48.80;;;;;;5046544;28;20505;-56
2022/11/03 10:30:56;;;;;;;2.90;0.13;;;22.60;48.60;;;;;;5047869;28;20053;-54
2022/11/03 10:33:29;;;;;;;0.63;0.10;;;22.60;48.70;;;;;;5047977;28;20110;-54
2022/11/03 10:35:59;;;;;;;0.95;0.10;;;22.50;48.60;;;;;;5047506;28;20041;-56
2022/11/03 10:38:29;;;;;;;0.77;0.20;;;22.50;48.50;;;;;;5053389;28;20076;-56
2022/11/03 10:40:57;;;;;;;0.88;0.20;;;22.50;48.50;;;;;;5067819;28;20036;-60
2022/11/03 10:43:24;;;;;;;0.30;0.30;;;22.50;48.40;;;;;;5057365;28;20053;-56
2022/11/03 10:46:10;;;;;;;0.40;0.20;;;22.60;48.60;;;;;;5047906;28;20556;-56
2022/11/03 10:48:37;;;;;;;2.85;0.20;;;22.60;48.60;;;;;;5057968;28;20048;-56
2022/11/03 10:51:09;;;;;;;2.20;0.15;;;22.50;48.60;;;;;;5067421;28;20053;-54
2022/11/03 10:53:36;;;;;;;1.52;0.10;;;22.60;48.60;;;;;;5067891;28;20580;-55
2022/11/03 10:56:04;;;;;;;1.65;0.28;;;22.60;48.60;;;;;;5067314;28;20416;-55
2022/11/03 10:58:33;;;;;;;0.38;0.20;;;22.60;48.50;;;;;;5067636;28;20132;-52
2022/11/03 11:01:00;;;;;;;1.75;0.95;;;22.60;48.50;;;;;;5066068;28;20459;-55
2022/11/03 11:03:27;;;;;;;0.25;0.10;;;22.60;48.50;;;;;;5070794;28;20098;-56
2022/11/03 11:05:54;;;;;;;0.50;0.15;;;22.60;48.20;;;;;;5069607;28;20062;-56
2022/11/03 11:08:23;;;;;;;1.85;0.10;;;22.60;48.20;;;;;;5071515;28;20044;-54
2022/11/03 11:10:51;;;;;;;1.95;0.22;;;22.70;48.20;;;;;;5071370;28;20041;-57
2022/11/03 11:13:26;;;;;;;1.35;0.20;;;22.60;48.70;;;;;;5071621;28;20118;-55
2022/11/03 11:15:54;;;;;;;0.43;0.10;;;22.70;48.10;;;;;;5071410;28;20045;-56
2022/11/03 11:19:04;;;;;;;0.50;0.10;;;22.60;48.00;;;;;;5071183;28;20046;-54
2022/11/03 11:22:00;;;;;;;0.10;0.10;;;22.70;48.00;;;;;;5070970;28;20048;-55
2022/11/03 11:25:03;;;;;;;0.40;0.25;;;22.70;47.90;;;;;;5071114;28;20629;-56
2022/11/03 11:27:59;;;;;;;0.20;0.10;;;22.60;47.90;;;;;;5069721;28;20068;-56
2022/11/03 11:30:45;;;;;;;;;;;22.60;47.80;;;;;;5028566;28;20169;-56
2022/11/03 11:33:21;;;;;;;2.67;0.20;;;22.60;48.00;;;;;;5008261;28;19925;-55
2022/11/03 11:36:21;;;;;;;0.80;0.20;;;22.50;48.60;;;;;;5008428;28;20125;-56
2022/11/03 11:39:09;;;;;;;0.40;0.40;;;22.60;48.00;;;;;;5007778;28;20132;-55
2022/11/03 11:42:06;;;;;;;3.03;0.22;;;22.50;48.10;;;;;;5008152;28;20050;-56
2022/11/03 11:44:55;;;;;;;0.10;0.10;;;22.50;48.10;;;;;;5008151;28;20069;-53
2022/11/03 11:47:25;;;;;;;1.60;0.10;;;22.50;48.20;;;;;;5007910;28;20057;-55
2022/11/03 11:50:15;;;;;;;1.05;0.10;;;22.50;48.20;;;;;;5014089;28;20058;-56
2022/11/03 11:52:44;;;;;;;0.45;0.15;;;22.60;48.20;;;;;;5027743;28;20051;-55
2022/11/03 11:55:18;;;;;;;2.38;0.20;;;22.60;48.30;;;;;;5027535;28;20130;-56
2022/11/03 11:57:47;;;;;;;0.47;0.10;;;22.60;48.90;;;;;;5027704;28;20076;-56
2022/11/03 12:00:22;;;;;;;0.82;0.60;;;22.50;48.20;;;;;;5027931;28;20065;-57
2022/11/03 12:02:50;;;;;;;0.20;0.10;;;22.60;48.40;;;;;;5027280;28;20164;-55
2022/11/03 12:05:20;;;;;;;0.85;0.20;;;22.50;48.40;;;;;;5027806;28;20515;-59
2022/11/03 12:07:47;;;;;;;0.70;0.10;;;22.50;48.40;;;;;;5057009;28;20131;-56
2022/11/03 12:10:16;;;;;;;3.13;0.20;;;22.60;48.40;;;;;;5070268;28;20052;-53
2022/11/03 12:12:43;;;;;;;0.77;0.10;;;22.50;48.40;;;;;;5070084;28;20128;-55
2022/11/03 12:15:50;;;;;;;1.70;0.30;;;22.60;48.50;;;;;;5069235;28;20756;-53
2022/11/03 12:18:35;;;;;;;0.65;0.10;;;22.60;48.40;;;;;;5071319;28;20052;-56
2022/11/03 12:21:03;;;;;;;1.02;0.10;;;22.60;48.50;;;;;;5058229;28;20047;-55
2022/11/03 12:23:38;;;;;;;0.68;0.10;;;22.50;48.60;;;;;;5050463;28;20041;-55
2022/11/03 12:26:05;;;;;;;0.28;0.20;;;22.50;48.60;;;;;;5049899;28;20127;-52
2022/11/03 12:28:37;;;;;;;0.88;0.73;;;22.50;48.60;;;;;;5049977;28;20041;-51
2022/11/03 12:31:05;;;;;;;1.25;0.22;;;22.50;48.60;;;;;;5049477;28;20060;-55
2022/11/03 12:33:32;;;;;;;1.52;0.10;;;22.50;48.70;;;;;;5049881;28;20041;-52
2022/11/03 12:35:59;;;;;;;0.45;0.20;;;22.50;48.70;;;;;;5049724;28;20056;-53
2022/11/03 12:38:26;;;;;;;2.10;0.57;;;22.50;48.70;;;;;;5049761;28;20051;-54
2022/11/03 12:40:53;;;;;;;1.77;0.10;;;22.50;48.70;;;;;;5049696;28;20505;-55
2022/11/03 12:43:20;;;;;;;3.33;1.23;;;22.50;48.80;;;;;;5049587;28;20041;-54
2022/11/03 12:45:47;;;;;;;1.23;0.10;;;22.50;48.80;;;;;;5049190;28;20539;-56
2022/11/03 12:48:16;;;;;;;1.10;0.30;;;22.50;48.80;;;;;;5068960;28;20040;-57
2022/11/03 12:50:43;;;;;;;0.57;0.25;;;22.50;48.80;;;;;;5069012;28;20041;-54
2022/11/03 12:53:10;;;;;;;0.70;0.17;;;22.50;48.90;;;;;;5069489;28;20122;-50
2022/11/03 12:55:37;;;;;;;0.55;0.10;;;22.50;48.90;;;;;;5069067;28;20051;-54
2022/11/03 12:58:04;;;;;;;1.20;0.10;;;22.50;48.90;;;;;;5069551;28;20094;-52
2022/11/03 13:00:31;;;;;;;0.50;0.10;;;22.50;48.90;;;;;;5068972;28;20076;-56
2022/11/03 13:02:58;;;;;;;1.58;0.08;;;22.50;49.00;;;;;;5069416;28;20043;-53
2022/11/03 13:05:26;;;;;;;3.63;0.10;;;22.50;49.10;;;;;;5069247;28;20131;-56
2022/11/03 13:07:53;;;;;;;0.43;0.10;;;22.40;49.00;;;;;;5063907;28;20418;-54
2022/11/03 13:10:20;;;;;;;3.03;0.38;;;22.40;49.10;;;;;;5049080;28;20123;-55
2022/11/03 13:12:47;;;;;;;2.50;0.13;;;22.40;49.10;;;;;;5049138;28;20041;-54
2022/11/03 13:15:14;;;;;;;0.63;0.20;;;22.40;49.20;;;;;;5048600;28;20045;-56
2022/11/03 13:17:42;;;;;;;1.58;0.10;;;22.40;49.80;;;;;;5049077;28;20037;-52
2022/11/03 13:20:10;;;;;;;0.73;0.10;;;22.40;49.30;;;;;;5057549;28;20823;-55
2022/11/03 13:22:38;;;;;;;0.47;0.47;;;22.40;49.30;;;;;;5068954;28;20048;-55
2022/11/03 13:25:06;;;;;;;1.52;0.10;;;22.30;49.30;;;;;;5069091;28;20042;-56
2022/11/03 13:27:33;;;;;;;0.98;0.10;;;22.40;49.50;;;;;;5068980;28;20037;-56
2022/11/03 13:30:00;;;;;;;0.28;0.28;;;22.30;49.40;;;;;;5068121;28;20040;-58